sensor_id;sensor_type;location;lat;lon;timestamp;P1;durP1;ratioP1;P2;durP2;ratioP2
77026;SDS011;65956;52.986;17.490;2023-07-28T00:02:19;9.30;;;6.70;;
77026;SDS011;65956;52.986;17.490;2023-07-28T00:04:45;10.10;;;7.40;;
77026;SDS011;65956;52.986;17.490;2023-07-28T00:07:11;9.40;;;7.00;;
77026;SDS011;65956;52.986;17.490;2023-07-28T00:09:37;11.70;;;7.70;;
77026;SDS011;65956;52.986;17.490;2023-07-28T00:12:03;11.80;;;8.10;;
77026;SDS011;65956;52.986;17.490;2023-07-28T00:14:29;9.60;;;7.30;;
77026;SDS011;65956;52.986;17.490;2023-07-28T00:16:55;11.40;;;8.20;;
77026;SDS011;65956;52.986;17.490;2023-07-28T00:19:22;11.90;;;9.20;;
77026;SDS011;65956;52.986;17.490;2023-07-28T00:21:48;12.80;;;8.90;;
77026;SDS011;65956;52.986;17.490;2023-07-28T00:24:15;13.00;;;8.30;;
77026;SDS011;65956;52.986;17.490;2023-07-28T00:26:43;10.60;;;8.40;;
77026;SDS011;65956;52.986;17.490;2023-07-28T00:29:10;11.00;;;8.30;;
77026;SDS011;65956;52.986;17.490;2023-07-28T00:31:36;12.40;;;8.40;;
77026;SDS011;65956;52.986;17.490;2023-07-28T00:34:03;14.70;;;8.80;;
77026;SDS011;65956;52.986;17.490;2023-07-28T00:36:30;11.70;;;8.30;;
77026;SDS011;65956;52.986;17.490;2023-07-28T00:38:57;12.90;;;7.70;;
77026;SDS011;65956;52.986;17.490;2023-07-28T00:41:23;9.80;;;7.20;;
77026;SDS011;65956;52.986;17.490;2023-07-28T00:43:49;11.00;;;7.30;;
77026;SDS011;65956;52.986;17.490;2023-07-28T00:46:15;10.90;;;8.40;;
77026;SDS011;65956;52.986;17.490;2023-07-28T00:48:42;10.00;;;7.90;;
77026;SDS011;65956;52.986;17.490;2023-07-28T00:51:09;12.00;;;7.40;;
77026;SDS011;65956;52.986;17.490;2023-07-28T00:53:35;11.40;;;7.40;;
77026;SDS011;65956;52.986;17.490;2023-07-28T00:56:04;10.90;;;6.60;;
77026;SDS011;65956;52.986;17.490;2023-07-28T00:58:31;9.70;;;7.00;;
77026;SDS011;65956;52.986;17.490;2023-07-28T01:00:57;9.60;;;6.80;;
77026;SDS011;65956;52.986;17.490;2023-07-28T01:03:24;9.70;;;6.20;;
77026;SDS011;65956;52.986;17.490;2023-07-28T01:05:55;10.40;;;6.90;;
77026;SDS011;65956;52.986;17.490;2023-07-28T01:08:56;8.60;;;5.80;;
77026;SDS011;65956;52.986;17.490;2023-07-28T01:11:28;9.10;;;6.50;;
77026;SDS011;65956;52.986;17.490;2023-07-28T01:13:55;12.10;;;6.60;;
77026;SDS011;65956;52.986;17.490;2023-07-28T01:16:21;9.90;;;6.30;;
77026;SDS011;65956;52.986;17.490;2023-07-28T01:18:47;9.60;;;6.40;;
77026;SDS011;65956;52.986;17.490;2023-07-28T01:21:24;9.90;;;6.20;;
77026;SDS011;65956;52.986;17.490;2023-07-28T01:24:19;9.50;;;6.10;;
77026;SDS011;65956;52.986;17.490;2023-07-28T01:26:53;10.10;;;5.40;;
77026;SDS011;65956;52.986;17.490;2023-07-28T01:29:20;9.20;;;5.90;;
77026;SDS011;65956;52.986;17.490;2023-07-28T01:31:47;7.50;;;5.70;;
77026;SDS011;65956;52.986;17.490;2023-07-28T01:34:13;10.30;;;5.70;;
77026;SDS011;65956;52.986;17.490;2023-07-28T01:36:39;9.40;;;6.00;;
77026;SDS011;65956;52.986;17.490;2023-07-28T01:39:06;9.40;;;5.90;;
77026;SDS011;65956;52.986;17.490;2023-07-28T01:41:32;11.00;;;6.40;;
77026;SDS011;65956;52.986;17.490;2023-07-28T01:43:58;9.90;;;5.70;;
77026;SDS011;65956;52.986;17.490;2023-07-28T01:46:24;8.80;;;5.70;;
77026;SDS011;65956;52.986;17.490;2023-07-28T01:48:50;9.80;;;5.90;;
77026;SDS011;65956;52.986;17.490;2023-07-28T01:51:16;8.20;;;5.70;;
77026;SDS011;65956;52.986;17.490;2023-07-28T01:53:42;8.50;;;5.30;;
77026;SDS011;65956;52.986;17.490;2023-07-28T01:56:08;9.30;;;5.30;;
77026;SDS011;65956;52.986;17.490;2023-07-28T01:58:34;7.80;;;4.90;;
77026;SDS011;65956;52.986;17.490;2023-07-28T02:01:00;8.20;;;4.90;;
77026;SDS011;65956;52.986;17.490;2023-07-28T02:03:26;7.60;;;5.40;;
77026;SDS011;65956;52.986;17.490;2023-07-28T02:05:52;7.60;;;5.00;;
77026;SDS011;65956;52.986;17.490;2023-07-28T02:08:18;8.00;;;4.90;;
77026;SDS011;65956;52.986;17.490;2023-07-28T02:10:44;8.80;;;5.70;;
77026;SDS011;65956;52.986;17.490;2023-07-28T02:13:10;8.80;;;5.70;;
77026;SDS011;65956;52.986;17.490;2023-07-28T02:15:36;8.00;;;5.80;;
77026;SDS011;65956;52.986;17.490;2023-07-28T02:18:02;9.60;;;5.40;;
77026;SDS011;65956;52.986;17.490;2023-07-28T02:20:30;8.50;;;5.10;;
77026;SDS011;65956;52.986;17.490;2023-07-28T02:22:56;9.90;;;5.70;;
77026;SDS011;65956;52.986;17.490;2023-07-28T02:25:22;7.70;;;5.80;;
77026;SDS011;65956;52.986;17.490;2023-07-28T02:27:48;7.90;;;5.30;;
77026;SDS011;65956;52.986;17.490;2023-07-28T02:30:14;10.60;;;6.00;;
77026;SDS011;65956;52.986;17.490;2023-07-28T02:32:40;9.10;;;5.90;;
77026;SDS011;65956;52.986;17.490;2023-07-28T02:35:06;8.40;;;5.20;;
77026;SDS011;65956;52.986;17.490;2023-07-28T02:37:32;7.80;;;5.00;;
77026;SDS011;65956;52.986;17.490;2023-07-28T02:39:58;10.10;;;5.20;;
77026;SDS011;65956;52.986;17.490;2023-07-28T02:42:24;9.50;;;5.30;;
77026;SDS011;65956;52.986;17.490;2023-07-28T02:44:50;7.90;;;4.70;;
77026;SDS011;65956;52.986;17.490;2023-07-28T02:47:16;8.00;;;4.70;;
77026;SDS011;65956;52.986;17.490;2023-07-28T02:49:43;7.70;;;4.60;;
77026;SDS011;65956;52.986;17.490;2023-07-28T02:52:09;7.20;;;4.50;;
77026;SDS011;65956;52.986;17.490;2023-07-28T02:54:35;6.70;;;4.20;;
77026;SDS011;65956;52.986;17.490;2023-07-28T02:57:02;7.30;;;4.40;;
77026;SDS011;65956;52.986;17.490;2023-07-28T02:59:29;6.00;;;3.90;;
77026;SDS011;65956;52.986;17.490;2023-07-28T03:01:55;8.10;;;4.40;;
77026;SDS011;65956;52.986;17.490;2023-07-28T03:04:23;7.40;;;4.30;;
77026;SDS011;65956;52.986;17.490;2023-07-28T03:07:09;7.50;;;4.10;;
77026;SDS011;65956;52.986;17.490;2023-07-28T03:09:36;6.30;;;3.90;;
77026;SDS011;65956;52.986;17.490;2023-07-28T03:12:02;7.30;;;4.20;;
77026;SDS011;65956;52.986;17.490;2023-07-28T03:14:28;6.70;;;4.30;;
77026;SDS011;65956;52.986;17.490;2023-07-28T03:16:55;7.00;;;4.00;;
77026;SDS011;65956;52.986;17.490;2023-07-28T03:19:21;7.00;;;4.10;;
77026;SDS011;65956;52.986;17.490;2023-07-28T03:21:47;8.50;;;3.90;;
77026;SDS011;65956;52.986;17.490;2023-07-28T03:24:13;7.20;;;4.30;;
77026;SDS011;65956;52.986;17.490;2023-07-28T03:26:39;6.60;;;4.50;;
77026;SDS011;65956;52.986;17.490;2023-07-28T03:29:05;7.00;;;4.30;;
77026;SDS011;65956;52.986;17.490;2023-07-28T03:31:31;8.50;;;4.70;;
77026;SDS011;65956;52.986;17.490;2023-07-28T03:34:01;7.20;;;4.10;;
77026;SDS011;65956;52.986;17.490;2023-07-28T03:36:28;8.40;;;4.40;;
77026;SDS011;65956;52.986;17.490;2023-07-28T03:38:55;7.70;;;4.50;;
77026;SDS011;65956;52.986;17.490;2023-07-28T03:41:21;7.60;;;5.10;;
77026;SDS011;65956;52.986;17.490;2023-07-28T03:43:47;8.00;;;5.10;;
77026;SDS011;65956;52.986;17.490;2023-07-28T03:46:13;8.40;;;4.50;;
77026;SDS011;65956;52.986;17.490;2023-07-28T03:48:39;8.10;;;5.20;;
77026;SDS011;65956;52.986;17.490;2023-07-28T03:51:05;8.50;;;5.20;;
77026;SDS011;65956;52.986;17.490;2023-07-28T03:53:31;9.10;;;5.70;;
77026;SDS011;65956;52.986;17.490;2023-07-28T03:55:57;9.80;;;5.70;;
77026;SDS011;65956;52.986;17.490;2023-07-28T03:58:26;8.30;;;5.10;;
77026;SDS011;65956;52.986;17.490;2023-07-28T04:00:53;8.00;;;4.90;;
77026;SDS011;65956;52.986;17.490;2023-07-28T04:03:19;9.60;;;5.70;;
77026;SDS011;65956;52.986;17.490;2023-07-28T04:05:45;9.10;;;5.40;;
77026;SDS011;65956;52.986;17.490;2023-07-28T04:08:11;10.40;;;6.50;;
77026;SDS011;65956;52.986;17.490;2023-07-28T04:10:37;10.00;;;5.40;;
77026;SDS011;65956;52.986;17.490;2023-07-28T04:13:03;9.70;;;6.50;;
77026;SDS011;65956;52.986;17.490;2023-07-28T04:15:29;8.40;;;5.60;;
77026;SDS011;65956;52.986;17.490;2023-07-28T04:17:55;7.40;;;5.00;;
77026;SDS011;65956;52.986;17.490;2023-07-28T04:20:21;8.60;;;5.50;;
77026;SDS011;65956;52.986;17.490;2023-07-28T04:22:47;8.90;;;5.30;;
77026;SDS011;65956;52.986;17.490;2023-07-28T04:25:13;9.70;;;4.80;;
77026;SDS011;65956;52.986;17.490;2023-07-28T04:27:43;9.10;;;5.00;;
77026;SDS011;65956;52.986;17.490;2023-07-28T04:30:09;9.50;;;5.50;;
77026;SDS011;65956;52.986;17.490;2023-07-28T04:32:35;8.60;;;6.40;;
77026;SDS011;65956;52.986;17.490;2023-07-28T04:35:08;9.30;;;5.60;;
77026;SDS011;65956;52.986;17.490;2023-07-28T04:37:53;8.00;;;5.00;;
77026;SDS011;65956;52.986;17.490;2023-07-28T04:40:31;9.40;;;5.80;;
77026;SDS011;65956;52.986;17.490;2023-07-28T04:42:57;9.60;;;6.50;;
77026;SDS011;65956;52.986;17.490;2023-07-28T04:45:23;9.50;;;5.40;;
77026;SDS011;65956;52.986;17.490;2023-07-28T04:47:49;9.10;;;5.90;;
77026;SDS011;65956;52.986;17.490;2023-07-28T04:50:15;9.70;;;5.50;;
77026;SDS011;65956;52.986;17.490;2023-07-28T04:52:47;7.80;;;5.30;;
77026;SDS011;65956;52.986;17.490;2023-07-28T04:55:35;8.50;;;5.20;;
77026;SDS011;65956;52.986;17.490;2023-07-28T04:58:01;11.70;;;5.70;;
77026;SDS011;65956;52.986;17.490;2023-07-28T05:00:32;9.70;;;5.80;;
77026;SDS011;65956;52.986;17.490;2023-07-28T05:02:58;10.60;;;5.60;;
77026;SDS011;65956;52.986;17.490;2023-07-28T05:05:25;9.50;;;5.40;;
77026;SDS011;65956;52.986;17.490;2023-07-28T05:07:51;8.20;;;4.90;;
77026;SDS011;65956;52.986;17.490;2023-07-28T05:10:17;8.80;;;5.30;;
77026;SDS011;65956;52.986;17.490;2023-07-28T05:12:43;8.00;;;4.90;;
77026;SDS011;65956;52.986;17.490;2023-07-28T05:15:09;8.70;;;5.50;;
77026;SDS011;65956;52.986;17.490;2023-07-28T05:17:37;8.70;;;5.20;;
77026;SDS011;65956;52.986;17.490;2023-07-28T05:20:16;8.20;;;5.60;;
77026;SDS011;65956;52.986;17.490;2023-07-28T05:22:48;6.80;;;4.40;;
77026;SDS011;65956;52.986;17.490;2023-07-28T05:25:15;9.90;;;5.80;;
77026;SDS011;65956;52.986;17.490;2023-07-28T05:27:41;8.30;;;5.10;;
77026;SDS011;65956;52.986;17.490;2023-07-28T05:30:08;8.90;;;5.90;;
77026;SDS011;65956;52.986;17.490;2023-07-28T05:32:35;10.00;;;5.90;;
77026;SDS011;65956;52.986;17.490;2023-07-28T05:35:17;9.50;;;5.60;;
77026;SDS011;65956;52.986;17.490;2023-07-28T05:37:43;9.20;;;6.10;;
77026;SDS011;65956;52.986;17.490;2023-07-28T05:40:09;8.30;;;5.60;;
77026;SDS011;65956;52.986;17.490;2023-07-28T05:42:36;8.80;;;5.80;;
77026;SDS011;65956;52.986;17.490;2023-07-28T05:45:02;10.40;;;7.30;;
77026;SDS011;65956;52.986;17.490;2023-07-28T05:47:29;9.50;;;6.20;;
77026;SDS011;65956;52.986;17.490;2023-07-28T05:49:55;10.30;;;6.00;;
77026;SDS011;65956;52.986;17.490;2023-07-28T05:52:21;8.70;;;5.80;;
77026;SDS011;65956;52.986;17.490;2023-07-28T05:54:50;9.60;;;6.30;;
77026;SDS011;65956;52.986;17.490;2023-07-28T05:57:17;10.30;;;6.60;;
77026;SDS011;65956;52.986;17.490;2023-07-28T05:59:43;9.30;;;5.70;;
77026;SDS011;65956;52.986;17.490;2023-07-28T06:02:09;8.10;;;5.30;;
77026;SDS011;65956;52.986;17.490;2023-07-28T06:04:44;9.40;;;6.70;;
77026;SDS011;65956;52.986;17.490;2023-07-28T06:07:10;8.70;;;5.80;;
77026;SDS011;65956;52.986;17.490;2023-07-28T06:09:37;9.00;;;5.80;;
77026;SDS011;65956;52.986;17.490;2023-07-28T06:12:03;9.00;;;6.30;;
77026;SDS011;65956;52.986;17.490;2023-07-28T06:14:29;8.30;;;5.20;;
77026;SDS011;65956;52.986;17.490;2023-07-28T06:16:56;7.50;;;5.40;;
77026;SDS011;65956;52.986;17.490;2023-07-28T06:19:25;7.20;;;4.80;;
77026;SDS011;65956;52.986;17.490;2023-07-28T06:21:52;8.30;;;5.00;;
77026;SDS011;65956;52.986;17.490;2023-07-28T06:24:19;8.00;;;5.20;;
77026;SDS011;65956;52.986;17.490;2023-07-28T06:26:46;8.60;;;5.10;;
77026;SDS011;65956;52.986;17.490;2023-07-28T06:29:12;6.50;;;4.70;;
77026;SDS011;65956;52.986;17.490;2023-07-28T06:31:38;6.50;;;4.60;;
77026;SDS011;65956;52.986;17.490;2023-07-28T06:34:04;6.60;;;4.80;;
77026;SDS011;65956;52.986;17.490;2023-07-28T06:36:30;6.40;;;4.80;;
77026;SDS011;65956;52.986;17.490;2023-07-28T06:38:56;8.20;;;5.70;;
77026;SDS011;65956;52.986;17.490;2023-07-28T06:41:22;7.90;;;5.10;;
77026;SDS011;65956;52.986;17.490;2023-07-28T06:43:54;6.30;;;4.70;;
77026;SDS011;65956;52.986;17.490;2023-07-28T06:46:20;5.90;;;3.80;;
77026;SDS011;65956;52.986;17.490;2023-07-28T06:48:46;7.80;;;4.80;;
77026;SDS011;65956;52.986;17.490;2023-07-28T06:51:15;7.70;;;5.10;;
77026;SDS011;65956;52.986;17.490;2023-07-28T06:53:41;7.00;;;4.80;;
77026;SDS011;65956;52.986;17.490;2023-07-28T06:56:07;8.00;;;5.60;;
77026;SDS011;65956;52.986;17.490;2023-07-28T06:58:33;7.50;;;5.50;;
77026;SDS011;65956;52.986;17.490;2023-07-28T07:00:59;8.00;;;5.60;;
77026;SDS011;65956;52.986;17.490;2023-07-28T07:03:25;7.60;;;5.20;;
77026;SDS011;65956;52.986;17.490;2023-07-28T07:05:52;8.60;;;5.70;;
77026;SDS011;65956;52.986;17.490;2023-07-28T07:08:18;6.90;;;5.20;;
77026;SDS011;65956;52.986;17.490;2023-07-28T07:10:48;7.10;;;5.40;;
77026;SDS011;65956;52.986;17.490;2023-07-28T07:13:15;7.80;;;5.80;;
77026;SDS011;65956;52.986;17.490;2023-07-28T07:15:42;7.00;;;5.40;;
77026;SDS011;65956;52.986;17.490;2023-07-28T07:18:08;7.30;;;5.50;;
77026;SDS011;65956;52.986;17.490;2023-07-28T07:20:34;7.80;;;5.90;;
77026;SDS011;65956;52.986;17.490;2023-07-28T07:23:01;7.00;;;5.40;;
77026;SDS011;65956;52.986;17.490;2023-07-28T07:25:27;7.70;;;5.60;;
77026;SDS011;65956;52.986;17.490;2023-07-28T07:27:53;7.50;;;5.40;;
77026;SDS011;65956;52.986;17.490;2023-07-28T07:30:19;6.40;;;4.70;;
77026;SDS011;65956;52.986;17.490;2023-07-28T07:32:48;7.10;;;5.80;;
77026;SDS011;65956;52.986;17.490;2023-07-28T07:35:14;7.70;;;5.70;;
77026;SDS011;65956;52.986;17.490;2023-07-28T07:37:40;7.10;;;5.70;;
77026;SDS011;65956;52.986;17.490;2023-07-28T07:40:06;8.20;;;6.10;;
77026;SDS011;65956;52.986;17.490;2023-07-28T07:42:40;6.90;;;5.70;;
77026;SDS011;65956;52.986;17.490;2023-07-28T07:45:12;6.80;;;5.30;;
77026;SDS011;65956;52.986;17.490;2023-07-28T07:47:39;8.00;;;5.50;;
77026;SDS011;65956;52.986;17.490;2023-07-28T07:50:06;7.00;;;5.20;;
77026;SDS011;65956;52.986;17.490;2023-07-28T07:52:37;6.90;;;5.70;;
77026;SDS011;65956;52.986;17.490;2023-07-28T07:55:03;6.90;;;5.30;;
77026;SDS011;65956;52.986;17.490;2023-07-28T07:57:30;6.30;;;5.20;;
77026;SDS011;65956;52.986;17.490;2023-07-28T07:59:57;7.50;;;5.40;;
77026;SDS011;65956;52.986;17.490;2023-07-28T08:02:24;7.90;;;5.80;;
77026;SDS011;65956;52.986;17.490;2023-07-28T08:04:53;8.00;;;5.50;;
77026;SDS011;65956;52.986;17.490;2023-07-28T08:07:20;7.60;;;5.70;;
77026;SDS011;65956;52.986;17.490;2023-07-28T08:09:46;8.00;;;6.00;;
77026;SDS011;65956;52.986;17.490;2023-07-28T08:12:12;7.60;;;5.60;;
77026;SDS011;65956;52.986;17.490;2023-07-28T08:14:40;7.20;;;5.80;;
77026;SDS011;65956;52.986;17.490;2023-07-28T08:17:06;8.50;;;5.60;;
77026;SDS011;65956;52.986;17.490;2023-07-28T08:19:32;7.70;;;6.10;;
77026;SDS011;65956;52.986;17.490;2023-07-28T08:21:58;7.10;;;5.90;;
77026;SDS011;65956;52.986;17.490;2023-07-28T08:24:24;7.80;;;6.10;;
77026;SDS011;65956;52.986;17.490;2023-07-28T08:26:50;8.10;;;6.10;;
77026;SDS011;65956;52.986;17.490;2023-07-28T08:29:16;7.60;;;6.00;;
77026;SDS011;65956;52.986;17.490;2023-07-28T08:31:42;6.20;;;4.90;;
77026;SDS011;65956;52.986;17.490;2023-07-28T08:34:08;6.70;;;4.90;;
77026;SDS011;65956;52.986;17.490;2023-07-28T08:36:34;7.20;;;5.10;;
77026;SDS011;65956;52.986;17.490;2023-07-28T08:39:00;6.80;;;5.00;;
77026;SDS011;65956;52.986;17.490;2023-07-28T08:41:26;5.50;;;4.50;;
77026;SDS011;65956;52.986;17.490;2023-07-28T08:43:52;6.80;;;4.70;;
77026;SDS011;65956;52.986;17.490;2023-07-28T08:46:19;7.40;;;4.80;;
77026;SDS011;65956;52.986;17.490;2023-07-28T08:48:46;6.30;;;4.60;;
77026;SDS011;65956;52.986;17.490;2023-07-28T08:51:12;5.60;;;4.40;;
77026;SDS011;65956;52.986;17.490;2023-07-28T08:53:39;6.50;;;4.60;;
77026;SDS011;65956;52.986;17.490;2023-07-28T08:56:06;5.50;;;4.70;;
77026;SDS011;65956;52.986;17.490;2023-07-28T08:58:32;5.70;;;4.30;;
77026;SDS011;65956;52.986;17.490;2023-07-28T09:00:59;5.10;;;4.00;;
77026;SDS011;65956;52.986;17.490;2023-07-28T09:03:28;4.70;;;3.70;;
77026;SDS011;65956;52.986;17.490;2023-07-28T09:05:58;5.10;;;3.60;;
77026;SDS011;65956;52.986;17.490;2023-07-28T09:08:26;5.30;;;3.60;;
77026;SDS011;65956;52.986;17.490;2023-07-28T09:10:53;6.90;;;4.00;;
77026;SDS011;65956;52.986;17.490;2023-07-28T09:13:20;5.20;;;4.00;;
77026;SDS011;65956;52.986;17.490;2023-07-28T09:15:46;5.10;;;3.40;;
77026;SDS011;65956;52.986;17.490;2023-07-28T09:18:14;5.80;;;4.50;;
77026;SDS011;65956;52.986;17.490;2023-07-28T09:20:42;7.30;;;5.00;;
77026;SDS011;65956;52.986;17.490;2023-07-28T09:23:09;6.00;;;4.10;;
77026;SDS011;65956;52.986;17.490;2023-07-28T09:25:36;6.20;;;4.40;;
77026;SDS011;65956;52.986;17.490;2023-07-28T09:28:03;6.90;;;4.30;;
77026;SDS011;65956;52.986;17.490;2023-07-28T09:30:48;6.30;;;4.30;;
77026;SDS011;65956;52.986;17.490;2023-07-28T09:33:35;6.10;;;4.60;;
77026;SDS011;65956;52.986;17.490;2023-07-28T09:36:11;6.60;;;4.30;;
77026;SDS011;65956;52.986;17.490;2023-07-28T09:38:40;5.90;;;4.50;;
77026;SDS011;65956;52.986;17.490;2023-07-28T09:41:10;7.70;;;4.70;;
77026;SDS011;65956;52.986;17.490;2023-07-28T09:43:37;6.70;;;5.40;;
77026;SDS011;65956;52.986;17.490;2023-07-28T09:46:04;6.90;;;5.20;;
77026;SDS011;65956;52.986;17.490;2023-07-28T09:48:32;8.40;;;5.00;;
77026;SDS011;65956;52.986;17.490;2023-07-28T09:51:01;7.00;;;4.30;;
77026;SDS011;65956;52.986;17.490;2023-07-28T09:53:31;7.50;;;4.70;;
77026;SDS011;65956;52.986;17.490;2023-07-28T09:56:01;6.90;;;4.70;;
77026;SDS011;65956;52.986;17.490;2023-07-28T09:58:28;5.80;;;4.40;;
77026;SDS011;65956;52.986;17.490;2023-07-28T10:01:02;6.80;;;5.00;;
77026;SDS011;65956;52.986;17.490;2023-07-28T10:03:32;6.90;;;4.90;;
77026;SDS011;65956;52.986;17.490;2023-07-28T10:05:59;5.80;;;4.50;;
77026;SDS011;65956;52.986;17.490;2023-07-28T10:08:25;6.60;;;5.00;;
77026;SDS011;65956;52.986;17.490;2023-07-28T10:10:51;5.80;;;4.50;;
77026;SDS011;65956;52.986;17.490;2023-07-28T10:13:19;6.30;;;5.30;;
77026;SDS011;65956;52.986;17.490;2023-07-28T10:15:48;5.40;;;4.20;;
77026;SDS011;65956;52.986;17.490;2023-07-28T10:18:16;5.80;;;4.70;;
77026;SDS011;65956;52.986;17.490;2023-07-28T10:20:45;5.30;;;4.20;;
77026;SDS011;65956;52.986;17.490;2023-07-28T10:23:16;6.20;;;4.10;;
77026;SDS011;65956;52.986;17.490;2023-07-28T10:25:45;6.20;;;3.90;;
77026;SDS011;65956;52.986;17.490;2023-07-28T10:28:25;5.20;;;4.00;;
77026;SDS011;65956;52.986;17.490;2023-07-28T10:31:00;6.10;;;4.40;;
77026;SDS011;65956;52.986;17.490;2023-07-28T10:35:58;6.10;;;3.70;;
77026;SDS011;65956;52.986;17.490;2023-07-28T10:38:29;6.30;;;4.10;;
77026;SDS011;65956;52.986;17.490;2023-07-28T10:43:36;3.30;;;2.30;;
77026;SDS011;65956;52.986;17.490;2023-07-28T10:46:03;5.10;;;3.90;;
77026;SDS011;65956;52.986;17.490;2023-07-28T10:48:31;4.90;;;3.20;;
77026;SDS011;65956;52.986;17.490;2023-07-28T10:50:57;4.40;;;3.40;;
77026;SDS011;65956;52.986;17.490;2023-07-28T10:53:23;5.30;;;3.80;;
77026;SDS011;65956;52.986;17.490;2023-07-28T10:55:49;10.80;;;4.30;;
77026;SDS011;65956;52.986;17.490;2023-07-28T10:58:15;8.00;;;3.80;;
77026;SDS011;65956;52.986;17.490;2023-07-28T11:00:41;5.90;;;3.30;;
77026;SDS011;65956;52.986;17.490;2023-07-28T11:03:07;5.60;;;2.20;;
77026;SDS011;65956;52.986;17.490;2023-07-28T11:05:34;4.00;;;2.40;;
77026;SDS011;65956;52.986;17.490;2023-07-28T11:08:01;5.60;;;2.50;;
77026;SDS011;65956;52.986;17.490;2023-07-28T11:10:28;4.80;;;2.70;;
77026;SDS011;65956;52.986;17.490;2023-07-28T11:12:57;7.50;;;3.20;;
77026;SDS011;65956;52.986;17.490;2023-07-28T11:15:26;5.70;;;2.90;;
77026;SDS011;65956;52.986;17.490;2023-07-28T11:17:52;6.80;;;3.70;;
77026;SDS011;65956;52.986;17.490;2023-07-28T11:20:19;6.80;;;4.00;;
77026;SDS011;65956;52.986;17.490;2023-07-28T11:25:20;7.70;;;4.70;;
77026;SDS011;65956;52.986;17.490;2023-07-28T11:27:47;6.70;;;3.80;;
77026;SDS011;65956;52.986;17.490;2023-07-28T11:30:14;5.50;;;3.70;;
77026;SDS011;65956;52.986;17.490;2023-07-28T11:32:42;5.30;;;3.20;;
77026;SDS011;65956;52.986;17.490;2023-07-28T11:35:11;6.20;;;3.50;;
77026;SDS011;65956;52.986;17.490;2023-07-28T11:37:39;5.80;;;3.30;;
77026;SDS011;65956;52.986;17.490;2023-07-28T11:40:07;6.20;;;4.10;;
77026;SDS011;65956;52.986;17.490;2023-07-28T11:42:40;6.90;;;4.20;;
77026;SDS011;65956;52.986;17.490;2023-07-28T11:45:09;8.00;;;5.50;;
77026;SDS011;65956;52.986;17.490;2023-07-28T11:47:38;6.80;;;4.50;;
77026;SDS011;65956;52.986;17.490;2023-07-28T11:50:04;8.50;;;5.20;;
77026;SDS011;65956;52.986;17.490;2023-07-28T11:52:34;7.50;;;5.10;;
77026;SDS011;65956;52.986;17.490;2023-07-28T11:55:04;8.70;;;5.60;;
77026;SDS011;65956;52.986;17.490;2023-07-28T11:59:59;6.40;;;4.90;;
77026;SDS011;65956;52.986;17.490;2023-07-28T12:02:26;6.40;;;4.50;;
77026;SDS011;65956;52.986;17.490;2023-07-28T12:04:57;6.00;;;4.30;;
77026;SDS011;65956;52.986;17.490;2023-07-28T12:07:30;6.00;;;3.80;;
77026;SDS011;65956;52.986;17.490;2023-07-28T12:09:57;7.00;;;5.40;;
77026;SDS011;65956;52.986;17.490;2023-07-28T12:12:44;6.20;;;4.00;;
77026;SDS011;65956;52.986;17.490;2023-07-28T12:18:01;4.30;;;3.00;;
77026;SDS011;65956;52.986;17.490;2023-07-28T12:23:02;4.00;;;2.70;;
77026;SDS011;65956;52.986;17.490;2023-07-28T12:25:29;4.50;;;2.70;;
77026;SDS011;65956;52.986;17.490;2023-07-28T12:27:55;5.60;;;3.40;;
77026;SDS011;65956;52.986;17.490;2023-07-28T12:30:21;4.00;;;2.60;;
77026;SDS011;65956;52.986;17.490;2023-07-28T12:32:47;3.30;;;2.20;;
77026;SDS011;65956;52.986;17.490;2023-07-28T12:35:14;3.80;;;2.00;;
77026;SDS011;65956;52.986;17.490;2023-07-28T12:37:40;3.60;;;2.20;;
77026;SDS011;65956;52.986;17.490;2023-07-28T12:40:07;3.50;;;2.40;;
77026;SDS011;65956;52.986;17.490;2023-07-28T12:42:35;3.80;;;2.40;;
77026;SDS011;65956;52.986;17.490;2023-07-28T12:45:02;4.50;;;2.40;;
77026;SDS011;65956;52.986;17.490;2023-07-28T12:47:28;3.80;;;2.40;;
77026;SDS011;65956;52.986;17.490;2023-07-28T12:49:54;3.90;;;2.20;;
77026;SDS011;65956;52.986;17.490;2023-07-28T12:52:21;3.90;;;2.30;;
77026;SDS011;65956;52.986;17.490;2023-07-28T12:54:47;3.90;;;2.40;;
77026;SDS011;65956;52.986;17.490;2023-07-28T12:57:13;4.20;;;2.50;;
77026;SDS011;65956;52.986;17.490;2023-07-28T12:59:39;5.50;;;3.00;;
77026;SDS011;65956;52.986;17.490;2023-07-28T13:02:05;5.20;;;3.40;;
77026;SDS011;65956;52.986;17.490;2023-07-28T13:04:31;4.80;;;3.40;;
77026;SDS011;65956;52.986;17.490;2023-07-28T13:06:57;5.20;;;3.40;;
77026;SDS011;65956;52.986;17.490;2023-07-28T13:09:23;5.50;;;3.70;;
77026;SDS011;65956;52.986;17.490;2023-07-28T13:11:49;4.80;;;3.10;;
77026;SDS011;65956;52.986;17.490;2023-07-28T13:14:15;5.80;;;3.50;;
77026;SDS011;65956;52.986;17.490;2023-07-28T13:16:41;5.30;;;4.00;;
77026;SDS011;65956;52.986;17.490;2023-07-28T13:19:07;4.80;;;3.70;;
77026;SDS011;65956;52.986;17.490;2023-07-28T13:21:33;4.80;;;3.60;;
77026;SDS011;65956;52.986;17.490;2023-07-28T13:23:59;9.00;;;3.40;;
77026;SDS011;65956;52.986;17.490;2023-07-28T13:26:25;4.60;;;3.20;;
77026;SDS011;65956;52.986;17.490;2023-07-28T13:28:51;5.10;;;3.60;;
77026;SDS011;65956;52.986;17.490;2023-07-28T13:31:17;5.60;;;3.80;;
77026;SDS011;65956;52.986;17.490;2023-07-28T13:33:44;4.90;;;3.20;;
77026;SDS011;65956;52.986;17.490;2023-07-28T13:36:11;4.10;;;2.70;;
77026;SDS011;65956;52.986;17.490;2023-07-28T13:38:37;4.80;;;3.60;;
77026;SDS011;65956;52.986;17.490;2023-07-28T13:41:04;5.00;;;3.50;;
77026;SDS011;65956;52.986;17.490;2023-07-28T13:43:34;4.90;;;3.20;;
77026;SDS011;65956;52.986;17.490;2023-07-28T13:46:02;4.20;;;3.10;;
77026;SDS011;65956;52.986;17.490;2023-07-28T13:48:30;4.10;;;2.90;;
77026;SDS011;65956;52.986;17.490;2023-07-28T13:50:57;3.60;;;2.60;;
77026;SDS011;65956;52.986;17.490;2023-07-28T13:53:23;4.00;;;3.30;;
77026;SDS011;65956;52.986;17.490;2023-07-28T13:55:50;3.60;;;2.30;;
77026;SDS011;65956;52.986;17.490;2023-07-28T13:58:16;3.50;;;2.60;;
77026;SDS011;65956;52.986;17.490;2023-07-28T14:00:43;3.60;;;2.40;;
77026;SDS011;65956;52.986;17.490;2023-07-28T14:03:09;4.20;;;2.90;;
77026;SDS011;65956;52.986;17.490;2023-07-28T14:05:35;3.90;;;2.50;;
77026;SDS011;65956;52.986;17.490;2023-07-28T14:08:01;4.50;;;2.50;;
77026;SDS011;65956;52.986;17.490;2023-07-28T14:10:27;4.20;;;2.90;;
77026;SDS011;65956;52.986;17.490;2023-07-28T14:12:53;4.80;;;3.00;;
77026;SDS011;65956;52.986;17.490;2023-07-28T14:15:19;4.20;;;3.30;;
77026;SDS011;65956;52.986;17.490;2023-07-28T14:17:45;5.70;;;3.20;;
77026;SDS011;65956;52.986;17.490;2023-07-28T14:20:11;4.00;;;2.60;;
77026;SDS011;65956;52.986;17.490;2023-07-28T14:22:37;4.30;;;2.10;;
77026;SDS011;65956;52.986;17.490;2023-07-28T14:25:03;3.10;;;1.90;;
77026;SDS011;65956;52.986;17.490;2023-07-28T14:27:30;3.10;;;1.60;;
77026;SDS011;65956;52.986;17.490;2023-07-28T14:29:56;3.00;;;1.40;;
77026;SDS011;65956;52.986;17.490;2023-07-28T14:32:22;2.80;;;1.50;;
77026;SDS011;65956;52.986;17.490;2023-07-28T14:34:48;3.10;;;1.40;;
77026;SDS011;65956;52.986;17.490;2023-07-28T14:37:14;3.20;;;1.50;;
77026;SDS011;65956;52.986;17.490;2023-07-28T14:39:40;3.50;;;1.40;;
77026;SDS011;65956;52.986;17.490;2023-07-28T14:42:06;3.10;;;1.40;;
77026;SDS011;65956;52.986;17.490;2023-07-28T14:44:32;3.60;;;1.50;;
77026;SDS011;65956;52.986;17.490;2023-07-28T14:46:58;4.70;;;1.50;;
77026;SDS011;65956;52.986;17.490;2023-07-28T14:49:24;3.00;;;1.40;;
77026;SDS011;65956;52.986;17.490;2023-07-28T14:51:56;2.70;;;1.30;;